sensor_id;sensor_type;location;lat;lon;timestamp;P1;durP1;ratioP1;P2;durP2;ratioP2
23155;SDS011;11746;50.876;4.246;2023-08-17T00:02:19;4.50;;;2.35;;
23155;SDS011;11746;50.876;4.246;2023-08-17T00:04:45;5.40;;;2.45;;
23155;SDS011;11746;50.876;4.246;2023-08-17T00:07:11;3.72;;;2.30;;
23155;SDS011;11746;50.876;4.246;2023-08-17T00:09:36;5.97;;;2.28;;
23155;SDS011;11746;50.876;4.246;2023-08-17T00:12:04;3.67;;;2.15;;
23155;SDS011;11746;50.876;4.246;2023-08-17T00:14:30;5.60;;;2.00;;
23155;SDS011;11746;50.876;4.246;2023-08-17T00:16:56;6.18;;;2.55;;
23155;SDS011;11746;50.876;4.246;2023-08-17T00:19:22;7.63;;;2.38;;
23155;SDS011;11746;50.876;4.246;2023-08-17T00:21:48;3.88;;;2.13;;
23155;SDS011;11746;50.876;4.246;2023-08-17T00:24:14;3.65;;;2.42;;
23155;SDS011;11746;50.876;4.246;2023-08-17T00:26:40;4.32;;;2.38;;
23155;SDS011;11746;50.876;4.246;2023-08-17T00:29:05;4.88;;;2.53;;
23155;SDS011;11746;50.876;4.246;2023-08-17T00:31:31;3.95;;;2.30;;
23155;SDS011;11746;50.876;4.246;2023-08-17T00:33:57;5.65;;;2.50;;
23155;SDS011;11746;50.876;4.246;2023-08-17T00:36:23;4.95;;;2.60;;
23155;SDS011;11746;50.876;4.246;2023-08-17T00:38:49;3.50;;;2.30;;
23155;SDS011;11746;50.876;4.246;2023-08-17T00:41:15;5.45;;;3.05;;
23155;SDS011;11746;50.876;4.246;2023-08-17T00:43:41;4.47;;;2.50;;
23155;SDS011;11746;50.876;4.246;2023-08-17T00:46:07;4.72;;;2.58;;
23155;SDS011;11746;50.876;4.246;2023-08-17T00:48:32;6.70;;;2.63;;
23155;SDS011;11746;50.876;4.246;2023-08-17T00:50:59;5.30;;;2.80;;
23155;SDS011;11746;50.876;4.246;2023-08-17T00:53:27;3.05;;;2.30;;
23155;SDS011;11746;50.876;4.246;2023-08-17T00:55:56;5.15;;;2.28;;
23155;SDS011;11746;50.876;4.246;2023-08-17T00:58:22;6.10;;;3.00;;
23155;SDS011;11746;50.876;4.246;2023-08-17T01:00:48;5.18;;;2.67;;
23155;SDS011;11746;50.876;4.246;2023-08-17T01:03:15;4.60;;;2.60;;
23155;SDS011;11746;50.876;4.246;2023-08-17T01:05:42;2.90;;;2.30;;
23155;SDS011;11746;50.876;4.246;2023-08-17T01:08:08;2.75;;;2.30;;
23155;SDS011;11746;50.876;4.246;2023-08-17T01:10:44;4.03;;;2.63;;
23155;SDS011;11746;50.876;4.246;2023-08-17T01:16:21;6.10;;;2.45;;
23155;SDS011;11746;50.876;4.246;2023-08-17T01:18:50;3.35;;;2.70;;
23155;SDS011;11746;50.876;4.246;2023-08-17T01:21:17;3.72;;;2.40;;
23155;SDS011;11746;50.876;4.246;2023-08-17T01:23:48;3.70;;;2.58;;
23155;SDS011;11746;50.876;4.246;2023-08-17T01:26:15;3.25;;;2.50;;
23155;SDS011;11746;50.876;4.246;2023-08-17T01:28:45;5.28;;;2.78;;
23155;SDS011;11746;50.876;4.246;2023-08-17T01:31:24;5.63;;;2.60;;
23155;SDS011;11746;50.876;4.246;2023-08-17T01:33:58;5.82;;;2.50;;
23155;SDS011;11746;50.876;4.246;2023-08-17T01:36:35;4.18;;;2.50;;
23155;SDS011;11746;50.876;4.246;2023-08-17T01:39:05;4.93;;;2.53;;
23155;SDS011;11746;50.876;4.246;2023-08-17T01:41:32;5.78;;;2.80;;
23155;SDS011;11746;50.876;4.246;2023-08-17T01:43:59;4.72;;;2.58;;
23155;SDS011;11746;50.876;4.246;2023-08-17T01:46:29;3.95;;;2.70;;
23155;SDS011;11746;50.876;4.246;2023-08-17T01:48:57;5.38;;;2.55;;
23155;SDS011;11746;50.876;4.246;2023-08-17T01:51:24;4.38;;;3.20;;
23155;SDS011;11746;50.876;4.246;2023-08-17T01:53:50;5.07;;;2.80;;
23155;SDS011;11746;50.876;4.246;2023-08-17T01:56:17;5.68;;;2.65;;
23155;SDS011;11746;50.876;4.246;2023-08-17T01:58:43;3.53;;;2.40;;
23155;SDS011;11746;50.876;4.246;2023-08-17T02:01:09;7.10;;;2.60;;
23155;SDS011;11746;50.876;4.246;2023-08-17T02:03:35;5.18;;;2.63;;
23155;SDS011;11746;50.876;4.246;2023-08-17T02:06:01;8.60;;;2.40;;
23155;SDS011;11746;50.876;4.246;2023-08-17T02:08:27;4.07;;;2.38;;
23155;SDS011;11746;50.876;4.246;2023-08-17T02:10:53;3.20;;;2.40;;
23155;SDS011;11746;50.876;4.246;2023-08-17T02:13:19;4.38;;;2.60;;
23155;SDS011;11746;50.876;4.246;2023-08-17T02:15:46;6.13;;;2.50;;
23155;SDS011;11746;50.876;4.246;2023-08-17T02:18:12;5.10;;;2.58;;
23155;SDS011;11746;50.876;4.246;2023-08-17T02:20:38;5.00;;;2.58;;
23155;SDS011;11746;50.876;4.246;2023-08-17T02:23:04;3.20;;;2.53;;
23155;SDS011;11746;50.876;4.246;2023-08-17T02:25:30;5.28;;;2.70;;
23155;SDS011;11746;50.876;4.246;2023-08-17T02:28:03;6.63;;;2.70;;
23155;SDS011;11746;50.876;4.246;2023-08-17T02:30:30;3.38;;;2.40;;
23155;SDS011;11746;50.876;4.246;2023-08-17T02:32:56;5.30;;;2.83;;
23155;SDS011;11746;50.876;4.246;2023-08-17T02:35:22;6.90;;;3.05;;
23155;SDS011;11746;50.876;4.246;2023-08-17T02:37:48;6.80;;;2.70;;
23155;SDS011;11746;50.876;4.246;2023-08-17T02:40:14;5.80;;;2.80;;
23155;SDS011;11746;50.876;4.246;2023-08-17T02:42:40;13.70;;;3.03;;
23155;SDS011;11746;50.876;4.246;2023-08-17T02:45:07;5.40;;;2.33;;
23155;SDS011;11746;50.876;4.246;2023-08-17T02:47:33;5.50;;;2.55;;
23155;SDS011;11746;50.876;4.246;2023-08-17T02:49:59;4.72;;;2.83;;
23155;SDS011;11746;50.876;4.246;2023-08-17T02:52:25;4.93;;;3.22;;
23155;SDS011;11746;50.876;4.246;2023-08-17T02:54:51;5.47;;;2.78;;
23155;SDS011;11746;50.876;4.246;2023-08-17T02:57:16;5.43;;;3.13;;
23155;SDS011;11746;50.876;4.246;2023-08-17T02:59:43;4.55;;;2.53;;
23155;SDS011;11746;50.876;4.246;2023-08-17T03:02:09;4.90;;;2.97;;
23155;SDS011;11746;50.876;4.246;2023-08-17T03:04:35;4.82;;;2.78;;
23155;SDS011;11746;50.876;4.246;2023-08-17T03:07:01;5.05;;;2.75;;
23155;SDS011;11746;50.876;4.246;2023-08-17T03:09:27;5.20;;;2.80;;
23155;SDS011;11746;50.876;4.246;2023-08-17T03:11:53;6.68;;;2.85;;
23155;SDS011;11746;50.876;4.246;2023-08-17T03:14:19;3.50;;;2.50;;
23155;SDS011;11746;50.876;4.246;2023-08-17T03:16:45;6.75;;;2.60;;
23155;SDS011;11746;50.876;4.246;2023-08-17T03:19:11;8.73;;;3.33;;
23155;SDS011;11746;50.876;4.246;2023-08-17T03:21:37;5.55;;;2.50;;
23155;SDS011;11746;50.876;4.246;2023-08-17T03:24:03;3.28;;;2.47;;
23155;SDS011;11746;50.876;4.246;2023-08-17T03:26:29;7.65;;;2.50;;
23155;SDS011;11746;50.876;4.246;2023-08-17T03:28:55;4.47;;;2.40;;
23155;SDS011;11746;50.876;4.246;2023-08-17T03:31:21;5.10;;;2.25;;
23155;SDS011;11746;50.876;4.246;2023-08-17T03:33:47;5.07;;;2.75;;
23155;SDS011;11746;50.876;4.246;2023-08-17T03:36:13;6.90;;;3.13;;
23155;SDS011;11746;50.876;4.246;2023-08-17T03:38:40;7.55;;;2.78;;
23155;SDS011;11746;50.876;4.246;2023-08-17T03:41:06;6.63;;;2.58;;
23155;SDS011;11746;50.876;4.246;2023-08-17T03:43:32;4.03;;;2.88;;
23155;SDS011;11746;50.876;4.246;2023-08-17T03:45:58;4.93;;;2.63;;
23155;SDS011;11746;50.876;4.246;2023-08-17T03:48:24;7.10;;;2.55;;
23155;SDS011;11746;50.876;4.246;2023-08-17T03:50:56;3.42;;;2.25;;
23155;SDS011;11746;50.876;4.246;2023-08-17T03:53:22;5.60;;;2.70;;
23155;SDS011;11746;50.876;4.246;2023-08-17T03:55:48;5.80;;;2.72;;
23155;SDS011;11746;50.876;4.246;2023-08-17T03:58:15;6.28;;;2.85;;
23155;SDS011;11746;50.876;4.246;2023-08-17T04:00:42;4.82;;;2.50;;
23155;SDS011;11746;50.876;4.246;2023-08-17T04:03:14;4.35;;;2.22;;
23155;SDS011;11746;50.876;4.246;2023-08-17T04:05:40;4.43;;;2.60;;
23155;SDS011;11746;50.876;4.246;2023-08-17T04:08:06;8.85;;;3.38;;
23155;SDS011;11746;50.876;4.246;2023-08-17T04:10:32;6.88;;;3.30;;
23155;SDS011;11746;50.876;4.246;2023-08-17T04:12:58;7.53;;;3.03;;
23155;SDS011;11746;50.876;4.246;2023-08-17T04:15:24;6.10;;;2.97;;
23155;SDS011;11746;50.876;4.246;2023-08-17T04:17:50;6.55;;;2.70;;
23155;SDS011;11746;50.876;4.246;2023-08-17T04:20:16;5.63;;;2.80;;
23155;SDS011;11746;50.876;4.246;2023-08-17T04:22:43;5.75;;;2.83;;
23155;SDS011;11746;50.876;4.246;2023-08-17T04:25:09;6.85;;;2.92;;
23155;SDS011;11746;50.876;4.246;2023-08-17T04:27:36;5.25;;;3.10;;
23155;SDS011;11746;50.876;4.246;2023-08-17T04:30:02;4.78;;;2.70;;
23155;SDS011;11746;50.876;4.246;2023-08-17T04:32:28;6.47;;;2.95;;
23155;SDS011;11746;50.876;4.246;2023-08-17T04:34:55;6.25;;;2.70;;
23155;SDS011;11746;50.876;4.246;2023-08-17T04:37:20;7.15;;;2.92;;
23155;SDS011;11746;50.876;4.246;2023-08-17T04:39:47;6.05;;;3.28;;
23155;SDS011;11746;50.876;4.246;2023-08-17T04:42:14;6.55;;;3.10;;
23155;SDS011;11746;50.876;4.246;2023-08-17T04:44:40;6.45;;;2.88;;
23155;SDS011;11746;50.876;4.246;2023-08-17T04:47:06;6.28;;;3.08;;
23155;SDS011;11746;50.876;4.246;2023-08-17T04:49:32;6.13;;;2.88;;
23155;SDS011;11746;50.876;4.246;2023-08-17T04:51:57;4.75;;;2.75;;
23155;SDS011;11746;50.876;4.246;2023-08-17T04:54:23;7.00;;;3.28;;
23155;SDS011;11746;50.876;4.246;2023-08-17T04:56:49;7.35;;;3.10;;
23155;SDS011;11746;50.876;4.246;2023-08-17T04:59:15;4.70;;;2.80;;
23155;SDS011;11746;50.876;4.246;2023-08-17T05:01:41;4.90;;;3.05;;
23155;SDS011;11746;50.876;4.246;2023-08-17T05:04:07;5.32;;;2.58;;
23155;SDS011;11746;50.876;4.246;2023-08-17T05:06:33;6.00;;;2.92;;
23155;SDS011;11746;50.876;4.246;2023-08-17T05:08:59;5.93;;;2.95;;
23155;SDS011;11746;50.876;4.246;2023-08-17T05:11:25;5.57;;;3.38;;
23155;SDS011;11746;50.876;4.246;2023-08-17T05:13:51;6.47;;;3.05;;
23155;SDS011;11746;50.876;4.246;2023-08-17T05:16:17;4.07;;;2.85;;
23155;SDS011;11746;50.876;4.246;2023-08-17T05:18:42;6.43;;;3.35;;
23155;SDS011;11746;50.876;4.246;2023-08-17T05:21:08;4.93;;;3.10;;
23155;SDS011;11746;50.876;4.246;2023-08-17T05:23:34;7.25;;;3.45;;
23155;SDS011;11746;50.876;4.246;2023-08-17T05:26:00;4.40;;;3.00;;
23155;SDS011;11746;50.876;4.246;2023-08-17T05:28:26;6.82;;;3.10;;
23155;SDS011;11746;50.876;4.246;2023-08-17T05:30:53;7.95;;;3.70;;
23155;SDS011;11746;50.876;4.246;2023-08-17T05:33:19;4.57;;;3.13;;
23155;SDS011;11746;50.876;4.246;2023-08-17T05:35:45;6.15;;;2.90;;
23155;SDS011;11746;50.876;4.246;2023-08-17T05:38:10;4.55;;;2.60;;
23155;SDS011;11746;50.876;4.246;2023-08-17T05:40:36;8.52;;;2.83;;
23155;SDS011;11746;50.876;4.246;2023-08-17T05:43:02;7.20;;;3.10;;
23155;SDS011;11746;50.876;4.246;2023-08-17T05:45:28;7.85;;;3.03;;
23155;SDS011;11746;50.876;4.246;2023-08-17T05:47:54;5.75;;;2.90;;
23155;SDS011;11746;50.876;4.246;2023-08-17T05:50:20;6.40;;;3.40;;
23155;SDS011;11746;50.876;4.246;2023-08-17T05:52:46;6.50;;;2.78;;
23155;SDS011;11746;50.876;4.246;2023-08-17T05:55:12;6.10;;;2.78;;
23155;SDS011;11746;50.876;4.246;2023-08-17T05:57:38;6.60;;;3.13;;
23155;SDS011;11746;50.876;4.246;2023-08-17T06:00:04;5.40;;;3.08;;
23155;SDS011;11746;50.876;4.246;2023-08-17T06:02:30;6.03;;;2.67;;
23155;SDS011;11746;50.876;4.246;2023-08-17T06:04:56;5.53;;;3.20;;
23155;SDS011;11746;50.876;4.246;2023-08-17T06:07:22;8.30;;;2.90;;
23155;SDS011;11746;50.876;4.246;2023-08-17T06:09:48;5.38;;;2.80;;
23155;SDS011;11746;50.876;4.246;2023-08-17T06:12:14;15.43;;;3.80;;
23155;SDS011;11746;50.876;4.246;2023-08-17T06:14:40;6.55;;;2.63;;
23155;SDS011;11746;50.876;4.246;2023-08-17T06:17:07;6.90;;;2.88;;
23155;SDS011;11746;50.876;4.246;2023-08-17T06:19:33;6.68;;;2.75;;
23155;SDS011;11746;50.876;4.246;2023-08-17T06:21:58;8.02;;;3.17;;
23155;SDS011;11746;50.876;4.246;2023-08-17T06:24:24;8.00;;;3.17;;
23155;SDS011;11746;50.876;4.246;2023-08-17T06:26:50;5.70;;;2.75;;
23155;SDS011;11746;50.876;4.246;2023-08-17T06:29:16;6.47;;;2.65;;
23155;SDS011;11746;50.876;4.246;2023-08-17T06:31:42;7.85;;;3.15;;
23155;SDS011;11746;50.876;4.246;2023-08-17T06:34:08;7.85;;;3.20;;
23155;SDS011;11746;50.876;4.246;2023-08-17T06:36:34;6.82;;;2.60;;
23155;SDS011;11746;50.876;4.246;2023-08-17T06:39:03;5.40;;;2.63;;
23155;SDS011;11746;50.876;4.246;2023-08-17T06:41:29;8.90;;;3.10;;
23155;SDS011;11746;50.876;4.246;2023-08-17T06:43:55;7.78;;;2.63;;
23155;SDS011;11746;50.876;4.246;2023-08-17T06:46:20;5.53;;;3.03;;
23155;SDS011;11746;50.876;4.246;2023-08-17T06:48:46;3.60;;;2.90;;
23155;SDS011;11746;50.876;4.246;2023-08-17T06:51:12;4.88;;;2.60;;
23155;SDS011;11746;50.876;4.246;2023-08-17T06:53:38;5.20;;;3.05;;
23155;SDS011;11746;50.876;4.246;2023-08-17T06:56:04;6.55;;;3.30;;
23155;SDS011;11746;50.876;4.246;2023-08-17T06:58:30;8.02;;;3.05;;
23155;SDS011;11746;50.876;4.246;2023-08-17T07:00:56;3.88;;;2.85;;
23155;SDS011;11746;50.876;4.246;2023-08-17T07:03:22;6.10;;;2.78;;
23155;SDS011;11746;50.876;4.246;2023-08-17T07:05:47;7.50;;;3.30;;
23155;SDS011;11746;50.876;4.246;2023-08-17T07:08:13;4.75;;;2.90;;
23155;SDS011;11746;50.876;4.246;2023-08-17T07:10:39;6.25;;;3.10;;
23155;SDS011;11746;50.876;4.246;2023-08-17T07:13:05;5.18;;;3.08;;
23155;SDS011;11746;50.876;4.246;2023-08-17T07:15:31;4.57;;;3.13;;
23155;SDS011;11746;50.876;4.246;2023-08-17T07:17:57;5.85;;;3.22;;
23155;SDS011;11746;50.876;4.246;2023-08-17T07:20:23;8.02;;;3.60;;
23155;SDS011;11746;50.876;4.246;2023-08-17T07:22:49;11.23;;;3.67;;
23155;SDS011;11746;50.876;4.246;2023-08-17T07:25:15;6.30;;;2.85;;
23155;SDS011;11746;50.876;4.246;2023-08-17T07:27:41;6.32;;;4.18;;
23155;SDS011;11746;50.876;4.246;2023-08-17T07:30:07;7.32;;;3.53;;
23155;SDS011;11746;50.876;4.246;2023-08-17T07:32:34;8.18;;;3.60;;
23155;SDS011;11746;50.876;4.246;2023-08-17T07:35:00;7.90;;;3.95;;
23155;SDS011;11746;50.876;4.246;2023-08-17T07:37:26;8.02;;;4.03;;
23155;SDS011;11746;50.876;4.246;2023-08-17T07:39:58;6.55;;;3.80;;
23155;SDS011;11746;50.876;4.246;2023-08-17T07:42:24;9.82;;;3.85;;
23155;SDS011;11746;50.876;4.246;2023-08-17T07:44:50;6.57;;;4.07;;
23155;SDS011;11746;50.876;4.246;2023-08-17T07:47:16;9.77;;;3.88;;
23155;SDS011;11746;50.876;4.246;2023-08-17T07:49:42;10.68;;;4.20;;
23155;SDS011;11746;50.876;4.246;2023-08-17T07:52:08;10.02;;;4.72;;
23155;SDS011;11746;50.876;4.246;2023-08-17T07:54:34;10.27;;;4.60;;
23155;SDS011;11746;50.876;4.246;2023-08-17T07:56:59;9.60;;;4.07;;
23155;SDS011;11746;50.876;4.246;2023-08-17T07:59:25;8.38;;;4.25;;
23155;SDS011;11746;50.876;4.246;2023-08-17T08:01:51;7.47;;;4.28;;
23155;SDS011;11746;50.876;4.246;2023-08-17T08:04:17;5.53;;;4.18;;
23155;SDS011;11746;50.876;4.246;2023-08-17T08:06:43;9.27;;;4.20;;
23155;SDS011;11746;50.876;4.246;2023-08-17T08:09:09;9.07;;;4.78;;
23155;SDS011;11746;50.876;4.246;2023-08-17T08:11:35;9.85;;;4.38;;
23155;SDS011;11746;50.876;4.246;2023-08-17T08:14:01;6.93;;;4.95;;
23155;SDS011;11746;50.876;4.246;2023-08-17T08:16:27;7.22;;;4.75;;
23155;SDS011;11746;50.876;4.246;2023-08-17T08:18:56;10.50;;;4.78;;
23155;SDS011;11746;50.876;4.246;2023-08-17T08:21:22;6.38;;;4.30;;
23155;SDS011;11746;50.876;4.246;2023-08-17T08:23:48;12.40;;;4.68;;
23155;SDS011;11746;50.876;4.246;2023-08-17T08:26:14;8.90;;;4.60;;
23155;SDS011;11746;50.876;4.246;2023-08-17T08:28:40;6.35;;;4.03;;
23155;SDS011;11746;50.876;4.246;2023-08-17T08:31:06;10.48;;;4.43;;
23155;SDS011;11746;50.876;4.246;2023-08-17T08:33:32;7.22;;;4.00;;
23155;SDS011;11746;50.876;4.246;2023-08-17T08:35:58;6.43;;;4.40;;
23155;SDS011;11746;50.876;4.246;2023-08-17T08:38:24;11.13;;;4.30;;
23155;SDS011;11746;50.876;4.246;2023-08-17T08:40:50;7.25;;;3.85;;
23155;SDS011;11746;50.876;4.246;2023-08-17T08:43:16;6.53;;;4.28;;
23155;SDS011;11746;50.876;4.246;2023-08-17T08:45:43;7.40;;;4.03;;
23155;SDS011;11746;50.876;4.246;2023-08-17T08:48:10;6.03;;;3.72;;
23155;SDS011;11746;50.876;4.246;2023-08-17T08:50:37;11.05;;;4.45;;
23155;SDS011;11746;50.876;4.246;2023-08-17T08:53:10;7.93;;;4.07;;
23155;SDS011;11746;50.876;4.246;2023-08-17T08:55:44;12.07;;;4.10;;
23155;SDS011;11746;50.876;4.246;2023-08-17T08:58:18;7.93;;;4.28;;
23155;SDS011;11746;50.876;4.246;2023-08-17T09:00:47;9.70;;;4.32;;
23155;SDS011;11746;50.876;4.246;2023-08-17T09:03:14;8.60;;;3.85;;
23155;SDS011;11746;50.876;4.246;2023-08-17T09:05:44;7.40;;;4.00;;
23155;SDS011;11746;50.876;4.246;2023-08-17T09:08:14;8.73;;;3.67;;
23155;SDS011;11746;50.876;4.246;2023-08-17T09:10:43;9.15;;;4.10;;
23155;SDS011;11746;50.876;4.246;2023-08-17T09:13:09;7.70;;;3.83;;
23155;SDS011;11746;50.876;4.246;2023-08-17T09:15:35;8.27;;;3.80;;
23155;SDS011;11746;50.876;4.246;2023-08-17T09:18:01;8.88;;;4.20;;
23155;SDS011;11746;50.876;4.246;2023-08-17T09:20:40;6.63;;;4.30;;
23155;SDS011;11746;50.876;4.246;2023-08-17T09:23:11;6.95;;;4.22;;
23155;SDS011;11746;50.876;4.246;2023-08-17T09:25:39;8.70;;;4.20;;
23155;SDS011;11746;50.876;4.246;2023-08-17T09:28:08;7.07;;;3.90;;
23155;SDS011;11746;50.876;4.246;2023-08-17T09:33:17;9.60;;;4.50;;
23155;SDS011;11746;50.876;4.246;2023-08-17T09:35:44;8.38;;;4.47;;
23155;SDS011;11746;50.876;4.246;2023-08-17T09:38:10;8.52;;;4.00;;
23155;SDS011;11746;50.876;4.246;2023-08-17T09:40:36;8.40;;;4.22;;
23155;SDS011;11746;50.876;4.246;2023-08-17T09:43:02;10.82;;;4.60;;
23155;SDS011;11746;50.876;4.246;2023-08-17T09:45:29;9.95;;;5.22;;
23155;SDS011;11746;50.876;4.246;2023-08-17T09:47:58;11.85;;;5.88;;
23155;SDS011;11746;50.876;4.246;2023-08-17T09:50:25;8.32;;;5.03;;
23155;SDS011;11746;50.876;4.246;2023-08-17T09:52:54;7.50;;;4.97;;
23155;SDS011;11746;50.876;4.246;2023-08-17T09:55:23;9.07;;;4.50;;
23155;SDS011;11746;50.876;4.246;2023-08-17T09:57:50;8.05;;;4.53;;
23155;SDS011;11746;50.876;4.246;2023-08-17T10:00:19;9.20;;;5.38;;
23155;SDS011;11746;50.876;4.246;2023-08-17T10:02:47;10.63;;;4.50;;
23155;SDS011;11746;50.876;4.246;2023-08-17T10:05:15;8.98;;;4.95;;
23155;SDS011;11746;50.876;4.246;2023-08-17T10:07:47;8.30;;;5.07;;
23155;SDS011;11746;50.876;4.246;2023-08-17T10:10:14;7.68;;;5.35;;
23155;SDS011;11746;50.876;4.246;2023-08-17T10:12:44;9.60;;;5.03;;
23155;SDS011;11746;50.876;4.246;2023-08-17T10:15:15;9.20;;;5.68;;
23155;SDS011;11746;50.876;4.246;2023-08-17T10:17:45;8.75;;;5.47;;
23155;SDS011;11746;50.876;4.246;2023-08-17T10:20:48;9.82;;;6.10;;
23155;SDS011;11746;50.876;4.246;2023-08-17T10:23:38;11.18;;;6.47;;
23155;SDS011;11746;50.876;4.246;2023-08-17T10:26:05;10.32;;;5.88;;
23155;SDS011;11746;50.876;4.246;2023-08-17T10:28:34;10.57;;;5.88;;
23155;SDS011;11746;50.876;4.246;2023-08-17T10:31:00;10.45;;;6.70;;
23155;SDS011;11746;50.876;4.246;2023-08-17T10:33:26;10.82;;;6.10;;
23155;SDS011;11746;50.876;4.246;2023-08-17T10:35:54;8.27;;;5.45;;
23155;SDS011;11746;50.876;4.246;2023-08-17T10:38:21;9.90;;;5.55;;
23155;SDS011;11746;50.876;4.246;2023-08-17T10:40:50;11.48;;;6.47;;
23155;SDS011;11746;50.876;4.246;2023-08-17T10:43:34;9.98;;;4.78;;
23155;SDS011;11746;50.876;4.246;2023-08-17T10:46:21;6.35;;;4.90;;
23155;SDS011;11746;50.876;4.246;2023-08-17T10:48:46;8.68;;;5.07;;
23155;SDS011;11746;50.876;4.246;2023-08-17T10:51:12;13.90;;;4.93;;
23155;SDS011;11746;50.876;4.246;2023-08-17T10:53:42;8.35;;;4.72;;
23155;SDS011;11746;50.876;4.246;2023-08-17T10:56:13;7.70;;;3.92;;
23155;SDS011;11746;50.876;4.246;2023-08-17T10:58:44;8.68;;;4.40;;
23155;SDS011;11746;50.876;4.246;2023-08-17T11:01:10;7.95;;;4.40;;
23155;SDS011;11746;50.876;4.246;2023-08-17T11:03:36;5.72;;;4.55;;
23155;SDS011;11746;50.876;4.246;2023-08-17T11:06:35;8.10;;;5.00;;
23155;SDS011;11746;50.876;4.246;2023-08-17T11:08:55;10.95;;;5.53;;
23155;SDS011;11746;50.876;4.246;2023-08-17T11:11:21;9.30;;;5.70;;
23155;SDS011;11746;50.876;4.246;2023-08-17T11:13:48;9.15;;;6.07;;
23155;SDS011;11746;50.876;4.246;2023-08-17T11:16:15;7.88;;;5.30;;
23155;SDS011;11746;50.876;4.246;2023-08-17T11:18:43;8.52;;;5.40;;
23155;SDS011;11746;50.876;4.246;2023-08-17T11:21:09;10.35;;;5.93;;
23155;SDS011;11746;50.876;4.246;2023-08-17T11:23:36;8.70;;;5.38;;
23155;SDS011;11746;50.876;4.246;2023-08-17T11:26:02;7.68;;;5.20;;
23155;SDS011;11746;50.876;4.246;2023-08-17T11:28:29;8.40;;;5.78;;
23155;SDS011;11746;50.876;4.246;2023-08-17T11:31:07;7.93;;;6.30;;
23155;SDS011;11746;50.876;4.246;2023-08-17T11:33:35;9.35;;;5.93;;
23155;SDS011;11746;50.876;4.246;2023-08-17T11:36:03;7.72;;;5.43;;
23155;SDS011;11746;50.876;4.246;2023-08-17T11:38:34;9.40;;;5.13;;
23155;SDS011;11746;50.876;4.246;2023-08-17T11:41:03;9.80;;;5.40;;
23155;SDS011;11746;50.876;4.246;2023-08-17T11:43:29;6.70;;;4.85;;
23155;SDS011;11746;50.876;4.246;2023-08-17T11:45:57;9.32;;;5.50;;
23155;SDS011;11746;50.876;4.246;2023-08-17T11:48:24;7.30;;;5.30;;
23155;SDS011;11746;50.876;4.246;2023-08-17T11:50:51;7.05;;;4.75;;
23155;SDS011;11746;50.876;4.246;2023-08-17T11:53:17;7.10;;;5.03;;
23155;SDS011;11746;50.876;4.246;2023-08-17T11:55:43;11.05;;;5.50;;
23155;SDS011;11746;50.876;4.246;2023-08-17T11:58:09;8.07;;;5.03;;
23155;SDS011;11746;50.876;4.246;2023-08-17T12:00:36;9.85;;;5.60;;
23155;SDS011;11746;50.876;4.246;2023-08-17T12:03:04;9.63;;;5.88;;
23155;SDS011;11746;50.876;4.246;2023-08-17T12:05:30;7.68;;;5.68;;
23155;SDS011;11746;50.876;4.246;2023-08-17T12:07:58;9.48;;;6.20;;
23155;SDS011;11746;50.876;4.246;2023-08-17T12:10:27;9.45;;;5.45;;
23155;SDS011;11746;50.876;4.246;2023-08-17T12:12:57;9.40;;;6.78;;
23155;SDS011;11746;50.876;4.246;2023-08-17T12:15:29;7.57;;;6.38;;
23155;SDS011;11746;50.876;4.246;2023-08-17T12:17:58;10.98;;;6.50;;
23155;SDS011;11746;50.876;4.246;2023-08-17T12:20:28;10.65;;;7.18;;
23155;SDS011;11746;50.876;4.246;2023-08-17T12:22:56;10.07;;;6.85;;
23155;SDS011;11746;50.876;4.246;2023-08-17T12:25:24;11.38;;;7.03;;
23155;SDS011;11746;50.876;4.246;2023-08-17T12:27:51;9.40;;;6.95;;
23155;SDS011;11746;50.876;4.246;2023-08-17T12:30:24;11.20;;;6.68;;
23155;SDS011;11746;50.876;4.246;2023-08-17T12:32:52;9.93;;;7.22;;
23155;SDS011;11746;50.876;4.246;2023-08-17T12:35:17;10.40;;;6.70;;
23155;SDS011;11746;50.876;4.246;2023-08-17T12:37:46;11.73;;;7.15;;
23155;SDS011;11746;50.876;4.246;2023-08-17T12:40:13;10.90;;;7.65;;
23155;SDS011;11746;50.876;4.246;2023-08-17T12:42:39;12.48;;;7.53;;
23155;SDS011;11746;50.876;4.246;2023-08-17T12:45:07;13.82;;;8.63;;
23155;SDS011;11746;50.876;4.246;2023-08-17T12:47:32;13.57;;;8.20;;
23155;SDS011;11746;50.876;4.246;2023-08-17T12:49:58;12.38;;;7.68;;
23155;SDS011;11746;50.876;4.246;2023-08-17T12:52:25;14.70;;;7.60;;
23155;SDS011;11746;50.876;4.246;2023-08-17T12:54:53;10.73;;;7.93;;
23155;SDS011;11746;50.876;4.246;2023-08-17T12:57:18;13.75;;;8.35;;
23155;SDS011;11746;50.876;4.246;2023-08-17T12:59:44;10.10;;;7.80;;
23155;SDS011;11746;50.876;4.246;2023-08-17T13:02:10;16.33;;;8.57;;
23155;SDS011;11746;50.876;4.246;2023-08-17T13:04:36;11.27;;;7.90;;
23155;SDS011;11746;50.876;4.246;2023-08-17T13:07:02;12.88;;;8.75;;
23155;SDS011;11746;50.876;4.246;2023-08-17T13:09:28;12.07;;;9.32;;
23155;SDS011;11746;50.876;4.246;2023-08-17T13:11:54;15.43;;;9.00;;
23155;SDS011;11746;50.876;4.246;2023-08-17T13:14:20;13.57;;;9.25;;
23155;SDS011;11746;50.876;4.246;2023-08-17T13:16:48;13.88;;;9.48;;
23155;SDS011;11746;50.876;4.246;2023-08-17T13:19:15;12.32;;;8.77;;
23155;SDS011;11746;50.876;4.246;2023-08-17T13:21:41;15.20;;;8.75;;
23155;SDS011;11746;50.876;4.246;2023-08-17T13:24:06;13.35;;;8.45;;
23155;SDS011;11746;50.876;4.246;2023-08-17T13:26:33;14.38;;;9.05;;
23155;SDS011;11746;50.876;4.246;2023-08-17T13:28:59;14.50;;;9.13;;
23155;SDS011;11746;50.876;4.246;2023-08-17T13:31:25;14.85;;;10.73;;
23155;SDS011;11746;50.876;4.246;2023-08-17T13:33:51;11.98;;;9.05;;
23155;SDS011;11746;50.876;4.246;2023-08-17T13:36:18;15.70;;;9.40;;
23155;SDS011;11746;50.876;4.246;2023-08-17T13:38:44;12.68;;;9.52;;
23155;SDS011;11746;50.876;4.246;2023-08-17T13:41:11;15.43;;;9.60;;
23155;SDS011;11746;50.876;4.246;2023-08-17T13:43:37;13.00;;;9.18;;
23155;SDS011;11746;50.876;4.246;2023-08-17T13:46:03;16.42;;;10.95;;
23155;SDS011;11746;50.876;4.246;2023-08-17T13:48:30;16.33;;;10.93;;
23155;SDS011;11746;50.876;4.246;2023-08-17T13:50:55;14.73;;;10.63;;
23155;SDS011;11746;50.876;4.246;2023-08-17T13:53:21;14.43;;;10.38;;
23155;SDS011;11746;50.876;4.246;2023-08-17T13:55:47;13.90;;;10.65;;
23155;SDS011;11746;50.876;4.246;2023-08-17T13:58:13;13.60;;;10.38;;
23155;SDS011;11746;50.876;4.246;2023-08-17T14:00:40;20.15;;;10.30;;
23155;SDS011;11746;50.876;4.246;2023-08-17T14:03:07;14.13;;;10.40;;
23155;SDS011;11746;50.876;4.246;2023-08-17T14:05:33;16.02;;;11.13;;
23155;SDS011;11746;50.876;4.246;2023-08-17T14:07:59;18.33;;;10.73;;
23155;SDS011;11746;50.876;4.246;2023-08-17T14:10:26;16.23;;;11.70;;
23155;SDS011;11746;50.876;4.246;2023-08-17T14:12:51;14.80;;;11.20;;
23155;SDS011;11746;50.876;4.246;2023-08-17T14:15:17;16.63;;;11.32;;
23155;SDS011;11746;50.876;4.246;2023-08-17T14:17:43;14.25;;;11.32;;
23155;SDS011;11746;50.876;4.246;2023-08-17T14:20:09;17.08;;;11.02;;
23155;SDS011;11746;50.876;4.246;2023-08-17T14:22:36;17.05;;;11.57;;
23155;SDS011;11746;50.876;4.246;2023-08-17T14:25:02;17.23;;;11.50;;
23155;SDS011;11746;50.876;4.246;2023-08-17T14:27:28;13.90;;;10.63;;
23155;SDS011;11746;50.876;4.246;2023-08-17T14:29:54;16.60;;;11.27;;
23155;SDS011;11746;50.876;4.246;2023-08-17T14:32:20;13.90;;;10.95;;
23155;SDS011;11746;50.876;4.246;2023-08-17T14:34:46;16.48;;;10.38;;
23155;SDS011;11746;50.876;4.246;2023-08-17T14:37:12;13.82;;;9.75;;
23155;SDS011;11746;50.876;4.246;2023-08-17T14:39:38;17.88;;;10.95;;
23155;SDS011;11746;50.876;4.246;2023-08-17T14:42:04;14.05;;;10.35;;
23155;SDS011;11746;50.876;4.246;2023-08-17T14:44:31;12.35;;;10.07;;
23155;SDS011;11746;50.876;4.246;2023-08-17T14:46:57;13.20;;;10.02;;
23155;SDS011;11746;50.876;4.246;2023-08-17T14:49:23;11.90;;;9.02;;